• Join FlightAware (Why Join?)
  • Login
  • US Flag 
05:49AM EDT


 

Airport Tracker/Info


-or-


 

Live Flight TrackerFlight Track Log ✈ N642TD ✈ 12-Jul-2013 ✈ KAAO - KGCK

Flight Track Log - Related Links

Times and Time Zones

All times are in EDT time to prevent confusion due to time zone crossing. See the N642TD flight status page for this flight to view local times or setup timezone preferences in your user account.

Time Position Orientation Groundspeed Altitude Reporting Facility
EDT Latitude Longitude Course Direction KTS MPH feet Rate Location/Type
04:28PM 37.7158 -97.2758 243° Southwest 142 163 4,700  Level Kansas City Center
04:28PM 37.7075 -97.2936 239° Southwest 131 151 5,600 2,160 Climbing Kansas City Center
04:29PM 37.7081 -97.3247 271° West 151 174 6,900 2,220 Climbing Kansas City Center
04:29PM 37.7100 -97.3447 277° West 142 163 7,900 2,040 Climbing Kansas City Center
04:30PM 37.7106 -97.3719 271° West 134 154 9,000 1,800 Climbing Kansas City Center
04:31PM 37.7133 -97.3928 280° West 138 159 9,800 1,620 Climbing Kansas City Center
04:32PM 37.7175 -97.4428 276° West 144 166 11,600 1,740 Climbing Kansas City Center
04:33PM 37.7217 -97.4958 276° West 150 173 13,500 1,920 Climbing Kansas City Center
04:34PM 37.7261 -97.5514 276° West 147 169 15,600 1,680 Climbing Kansas City Center
04:35PM 37.7292 -97.6061 274° West 153 176 17,000 1,140 Climbing Kansas City Center
04:36PM 37.7358 -97.6839 276° West 177 204 18,000 480 Climbing Kansas City Center
04:37PM 37.7408 -97.7628 275° West 210 242 18,100  Climbing Kansas City Center
04:38PM 37.7467 -97.8481 275° West 237 273 18,000 -60 Descending Kansas City Center
04:39PM 37.7536 -97.9344 276° West 246 283 18,000  Level Kansas City Center
04:40PM 37.7592 -98.0222 275° West 249 287 18,000  Level Kansas City Center
04:41PM 37.7664 -98.1081 276° West 247 284 18,000  Level Kansas City Center
04:42PM 37.7739 -98.2094 275° West 248 285 18,000  Level Kansas City Center
04:43PM 37.7800 -98.2967 275° West 248 285 18,000  Level Kansas City Center
04:44PM 37.7861 -98.3831 275° West 247 284 18,000  Level Kansas City Center
04:45PM 37.7925 -98.4711 275° West 250 288 18,000  Level Kansas City Center
04:46PM 37.7972 -98.5581 274° West 249 287 18,000  Level Kansas City Center
04:47PM 37.8028 -98.6456 275° West 248 285 18,000  Level Kansas City Center
04:48PM 37.8094 -98.7331 276° West 249 287 18,000  Level Kansas City Center
04:49PM 37.8161 -98.8389 275° West 251 289 18,000  Level Kansas City Center
04:50PM 37.8219 -98.9269 275° West 251 289 18,000  Level Kansas City Center
04:51PM 37.8269 -99.0156 274° West 252 290 18,000  Level Kansas City Center
04:52PM 37.8336 -99.1031 276° West 250 288 18,000  Level Kansas City Center
04:53PM 37.8383 -99.1919 274° West 252 290 18,000  Level Kansas City Center
04:54PM 37.8431 -99.2811 274° West 252 290 18,000  Level Kansas City Center
04:55PM 37.8500 -99.3875 275° West 253 291 18,000  Level Kansas City Center
04:56PM 37.8553 -99.4772 274° West 256 295 18,000  Level Kansas City Center
04:57PM 37.8611 -99.5706 275° West 253 291 18,000  Level Kansas City Center
04:58PM 37.8653 -99.6550 274° West 252 290 18,000  Level Kansas City Center
04:59PM 37.8714 -99.7542 274° West 253 291 18,000 -360 Level Kansas City Center
05:00PM 37.8764 -99.8372 274° West 250 288 17,300 -1,020 Descending Kansas City Center
05:02PM 37.8822 -99.9414 274° West 261 300 16,000 -1,080 Descending Kansas City Center
05:03PM 37.8878 -100.0247 275° West 253 291 15,100 -840 Descending Kansas City Center
05:04PM 37.8925 -100.1194 274° West 244 281 14,300 -780 Descending Kansas City Center
05:05PM 37.8978 -100.1997 275° West 240 276 13,500 -840 Descending Kansas City Center
05:06PM 37.9028 -100.2917 274° West 237 273 12,600 -960 Descending Kansas City Center
05:07PM 37.9100 -100.3689 277° West 233 268 11,600 -1,320 Descending Kansas City Center
05:08PM 37.9394 -100.4572 293° West 240 276 9,900 -1,860 Descending Kansas City Center
05:09PM 37.9600 -100.5333 289° West 240 276 7,800 -2,340 Descending Kansas City Center
05:10PM 37.9597 -100.6183 270° West 224 258 5,100 -1,620 Descending Kansas City Center
05:11PM 37.9589 -100.6719 269° West 209 241 4,500 -600 Descending Kansas City Center